createdAt,value
2018-07-05T00:00:51.792Z,4.40
2018-07-05T00:03:38.965Z,5.90
2018-07-05T00:06:28.044Z,6.10
2018-07-05T00:09:15.780Z,4.23
2018-07-05T00:12:03.876Z,3.57
2018-07-05T00:14:51.324Z,5.23
2018-07-05T00:17:32.859Z,3.37
2018-07-05T00:20:20.463Z,3.73
2018-07-05T00:23:07.951Z,5.57
2018-07-05T00:25:55.603Z,4.27
2018-07-05T00:28:43.313Z,5.17
2018-07-05T00:31:31.567Z,5.43
2018-07-05T00:34:19.170Z,6.83
2018-07-05T00:37:06.637Z,5.03
2018-07-05T00:39:54.255Z,3.23
2018-07-05T00:42:41.554Z,4.27
2018-07-05T00:45:28.884Z,4.90
2018-07-05T00:48:16.111Z,6.87
2018-07-05T00:51:04.734Z,5.70
2018-07-05T00:53:45.826Z,5.73
2018-07-05T00:56:35.317Z,4.33
2018-07-05T00:59:22.166Z,5.27
2018-07-05T01:02:11.826Z,6.50
2018-07-05T01:04:58.966Z,5.33
2018-07-05T01:07:46.530Z,4.23
2018-07-05T01:10:34.051Z,5.40
2018-07-05T01:13:21.543Z,6.13
2018-07-05T01:16:08.727Z,8.13
2018-07-05T01:18:56.086Z,6.83
2018-07-05T01:21:43.139Z,5.93
2018-07-05T01:24:30.745Z,6.10
2018-07-05T01:27:18.630Z,6.63
2018-07-05T01:30:06.154Z,7.70
2018-07-05T01:32:53.278Z,6.17
2018-07-05T01:35:40.613Z,5.40
2018-07-05T01:38:27.733Z,7.33
2018-07-05T01:41:15.691Z,5.77
2018-07-05T01:44:02.765Z,10.87
2018-07-05T01:46:51.001Z,8.60
2018-07-05T01:49:38.105Z,9.83
2018-07-05T01:52:26.866Z,7.43
2018-07-05T01:55:14.198Z,7.57
2018-07-05T01:58:02.501Z,5.93
2018-07-05T02:00:50.201Z,13.23
2018-07-05T02:03:37.843Z,8.50
2018-07-05T02:06:25.079Z,8.90
2018-07-05T02:09:13.252Z,8.90
2018-07-05T02:12:00.585Z,6.70
2018-07-05T02:14:48.368Z,10.10
2018-07-05T02:17:35.608Z,6.63
2018-07-05T02:20:24.211Z,11.43
2018-07-05T02:23:11.338Z,8.30
2018-07-05T02:25:58.816Z,7.13
2018-07-05T02:28:45.897Z,8.60
2018-07-05T02:31:34.273Z,9.80
2018-07-05T02:34:21.230Z,8.37
2018-07-05T02:37:12.490Z,7.57
2018-07-05T02:39:59.666Z,7.33
2018-07-05T02:42:48.321Z,8.87
2018-07-05T02:45:35.451Z,8.23
2018-07-05T02:48:22.965Z,7.40
2018-07-05T02:51:10.086Z,7.50
2018-07-05T02:53:58.639Z,6.53
2018-07-05T02:56:45.899Z,8.60
2018-07-05T02:59:33.298Z,7.00
2018-07-05T03:02:20.377Z,6.50
2018-07-05T03:05:08.769Z,10.90
2018-07-05T03:07:55.814Z,8.60
2018-07-05T03:10:43.372Z,7.30
2018-07-05T03:13:30.519Z,8.90
2018-07-05T03:16:18.030Z,10.17
2018-07-05T03:19:05.229Z,7.50
2018-07-05T03:21:52.714Z,8.37
2018-07-05T03:24:40.289Z,9.20
2018-07-05T03:27:28.000Z,6.40
2018-07-05T03:30:15.297Z,15.00
2018-07-05T03:33:02.831Z,10.93
2018-07-05T03:35:49.953Z,13.17
2018-07-05T03:38:38.517Z,14.87
2018-07-05T03:41:25.385Z,12.67
2018-07-05T03:44:13.356Z,14.80
2018-07-05T03:47:00.464Z,16.40
2018-07-05T03:49:48.002Z,15.97
2018-07-05T03:52:35.166Z,18.00
2018-07-05T03:55:24.128Z,13.17
2018-07-05T03:58:12.173Z,13.47
2018-07-05T04:00:59.732Z,13.30
2018-07-05T04:03:47.131Z,15.93
2018-07-05T04:06:35.017Z,13.30
2018-07-05T04:09:22.341Z,16.90
2018-07-05T04:12:10.074Z,18.43
2018-07-05T04:14:57.853Z,14.77
2018-07-05T04:17:45.333Z,20.87
2018-07-05T04:20:33.116Z,15.33
2018-07-05T04:23:21.015Z,17.30
2018-07-05T04:26:08.358Z,16.00
2018-07-05T04:28:57.166Z,14.80
2018-07-05T04:31:44.399Z,14.60
2018-07-05T04:34:32.156Z,17.67
2018-07-05T04:37:19.484Z,13.33
2018-07-05T04:40:07.182Z,16.10
2018-07-05T04:42:54.437Z,14.27
2018-07-05T04:45:42.373Z,24.13
2018-07-05T04:48:29.702Z,13.90
2018-07-05T04:51:17.432Z,17.73
2018-07-05T04:54:04.722Z,19.47
2018-07-05T04:56:53.069Z,18.90
2018-07-05T04:59:40.400Z,18.20
2018-07-05T05:02:28.183Z,17.13
2018-07-05T05:05:09.675Z,17.73
2018-07-05T05:07:54.727Z,15.30
2018-07-05T05:10:36.592Z,17.63
2018-07-05T05:13:25.714Z,16.87
2018-07-05T05:16:13.162Z,17.27
2018-07-05T05:19:00.772Z,22.60
2018-07-05T05:21:48.404Z,21.70
2018-07-05T05:24:36.126Z,18.10
2018-07-05T05:27:24.826Z,18.83
2018-07-05T05:30:06.293Z,24.00
2018-07-05T05:32:54.567Z,22.20
2018-07-05T05:35:43.116Z,23.70
2018-07-05T05:38:31.130Z,20.43
2018-07-05T05:41:18.828Z,23.70
2018-07-05T05:44:05.975Z,20.43
2018-07-05T05:46:53.580Z,19.17
2018-07-05T05:49:40.713Z,19.23
2018-07-05T05:52:29.961Z,19.30
2018-07-05T05:55:17.181Z,21.00
2018-07-05T05:58:05.390Z,20.53
2018-07-05T06:00:52.778Z,19.83
2018-07-05T06:03:40.364Z,18.70
2018-07-05T06:06:30.605Z,19.07
2018-07-05T06:09:19.433Z,19.13
2018-07-05T06:12:06.763Z,18.63
2018-07-05T06:14:54.536Z,16.30
2018-07-05T06:17:42.649Z,17.23
2018-07-05T06:20:30.395Z,18.27
2018-07-05T06:23:18.364Z,19.53
2018-07-05T06:26:05.563Z,15.70
2018-07-05T06:28:53.801Z,16.87
2018-07-05T06:31:40.967Z,16.33
2018-07-05T06:34:28.961Z,15.10
2018-07-05T06:37:16.098Z,14.53
2018-07-05T06:40:03.802Z,17.07
2018-07-05T06:42:46.538Z,13.40
2018-07-05T06:45:34.379Z,15.23
2018-07-05T06:48:22.350Z,15.50
2018-07-05T06:51:10.126Z,14.30
2018-07-05T06:53:57.241Z,12.90
2018-07-05T06:56:44.928Z,16.20
2018-07-05T06:59:32.312Z,13.67
2018-07-05T07:02:19.884Z,17.00
2018-07-05T07:05:07.109Z,12.57
2018-07-05T07:07:54.681Z,10.60
2018-07-05T07:10:42.616Z,13.43
2018-07-05T07:13:30.318Z,15.43
2018-07-05T07:16:17.953Z,11.10
2018-07-05T07:19:05.548Z,15.13
2018-07-05T07:21:52.896Z,10.43
2018-07-05T07:24:40.658Z,10.57
2018-07-05T07:27:28.197Z,10.20
2018-07-05T07:30:15.853Z,9.90
2018-07-05T07:33:03.360Z,9.00
2018-07-05T07:35:53.397Z,12.00
2018-07-05T07:38:41.178Z,10.50
2018-07-05T07:41:23.242Z,7.50
2018-07-05T07:43:58.827Z,11.10
2018-07-05T07:46:27.469Z,11.90
2018-07-05T07:48:56.341Z,10.10
2018-07-05T07:51:25.505Z,7.77
2018-07-05T07:53:54.185Z,11.00
2018-07-05T07:56:23.033Z,9.33
2018-07-05T07:58:51.518Z,12.37
2018-07-05T08:01:20.365Z,9.90
2018-07-05T08:03:48.902Z,10.80
2018-07-05T08:06:17.953Z,10.93
2018-07-05T08:08:46.536Z,10.50
2018-07-05T08:11:15.713Z,9.80
2018-07-05T08:13:44.625Z,9.43
2018-07-05T08:16:13.754Z,10.90
2018-07-05T08:18:43.149Z,7.47
2018-07-05T08:21:12.745Z,24.33
2018-07-05T08:23:41.546Z,9.40
2018-07-05T08:26:10.162Z,8.10
2018-07-05T08:28:38.796Z,15.47
2018-07-05T08:31:08.846Z,20.60
2018-07-05T08:33:37.704Z,8.07
2018-07-05T08:36:08.517Z,9.80
2018-07-05T08:38:37.158Z,15.13
2018-07-05T08:41:06.666Z,11.73
2018-07-05T08:43:35.352Z,8.83
2018-07-05T08:46:04.037Z,12.23
2018-07-05T08:48:33.592Z,10.90
2018-07-05T08:51:03.833Z,8.50
2018-07-05T08:53:33.424Z,11.13
2018-07-05T08:56:02.877Z,14.13
2018-07-05T08:58:32.594Z,8.73
2018-07-05T09:01:02.720Z,6.40
2018-07-05T09:03:31.860Z,11.60
2018-07-05T09:06:02.439Z,7.83
2018-07-05T09:08:31.841Z,6.10
2018-07-05T09:11:01.246Z,13.83
2018-07-05T09:13:29.894Z,6.80
2018-07-05T09:15:58.574Z,5.47
2018-07-05T09:18:27.223Z,8.27
2018-07-05T09:20:56.670Z,9.57
2018-07-05T09:23:26.201Z,6.17
2018-07-05T09:25:55.426Z,8.43
2018-07-05T09:28:24.084Z,6.10
2018-07-05T09:30:53.599Z,9.07
2018-07-05T09:33:22.148Z,7.80
2018-07-05T09:35:51.053Z,6.60
2018-07-05T09:38:19.615Z,11.00
2018-07-05T09:40:48.098Z,6.87
2018-07-05T09:43:17.530Z,6.23
2018-07-05T09:45:46.650Z,6.47
2018-07-05T09:48:16.206Z,6.43
2018-07-05T09:50:44.813Z,7.50
2018-07-05T09:53:13.578Z,6.20
2018-07-05T09:55:42.177Z,7.03
2018-07-05T09:58:10.781Z,11.30
2018-07-05T10:00:45.174Z,7.17
2018-07-05T10:03:14.420Z,6.43
2018-07-05T10:05:44.731Z,9.73
2018-07-05T10:08:15.633Z,8.50
2018-07-05T10:10:46.061Z,6.27
2018-07-05T10:13:14.663Z,4.40
2018-07-05T10:15:43.141Z,4.83
2018-07-05T10:18:12.037Z,3.87
2018-07-05T10:20:40.603Z,4.90
2018-07-05T10:23:10.266Z,5.80
2018-07-05T10:25:39.016Z,5.53
2018-07-05T10:28:08.056Z,5.13
2018-07-05T10:30:49.445Z,4.73
2018-07-05T10:33:36.805Z,5.87
2018-07-05T10:36:11.996Z,7.30
2018-07-05T10:38:41.270Z,5.17
2018-07-05T10:41:22.638Z,4.10
2018-07-05T10:44:09.768Z,6.53
2018-07-05T10:46:57.431Z,3.20
2018-07-05T10:49:44.857Z,3.67
2018-07-05T10:52:31.953Z,4.33
2018-07-05T10:55:19.368Z,3.47
2018-07-05T10:58:06.381Z,5.60
2018-07-05T11:00:53.587Z,3.63
2018-07-05T11:03:41.065Z,5.43
2018-07-05T11:06:28.253Z,3.20
2018-07-05T11:09:15.884Z,3.80
2018-07-05T11:12:03.875Z,3.63
2018-07-05T11:14:52.254Z,3.57
2018-07-05T11:17:40.855Z,4.03
2018-07-05T11:20:28.526Z,3.00
2018-07-05T11:23:15.591Z,4.00
2018-07-05T11:26:03.411Z,3.10
2018-07-05T11:28:51.058Z,3.43
2018-07-05T11:31:39.680Z,3.93
2018-07-05T11:34:27.186Z,9.37
2018-07-05T11:37:14.556Z,5.03
2018-07-05T11:40:02.687Z,2.93
2018-07-05T11:42:50.266Z,3.50
2018-07-05T11:45:38.798Z,4.33
2018-07-05T11:48:26.393Z,3.17
2018-07-05T11:51:13.760Z,6.50
2018-07-05T11:54:02.028Z,3.50
2018-07-05T11:56:49.123Z,3.97
2018-07-05T11:59:37.274Z,6.40
2018-07-05T12:02:24.417Z,5.73
2018-07-05T12:05:12.626Z,3.83
2018-07-05T12:08:00.992Z,3.70
2018-07-05T12:10:48.602Z,4.70
2018-07-05T12:13:36.793Z,4.87
2018-07-05T12:16:24.968Z,3.97
2018-07-05T12:19:11.809Z,4.20
2018-07-05T12:21:59.886Z,4.60
2018-07-05T12:24:47.837Z,3.57
2018-07-05T12:27:36.041Z,3.03
2018-07-05T12:30:23.229Z,6.50
2018-07-05T12:33:13.699Z,3.47
2018-07-05T12:36:00.920Z,5.43
2018-07-05T12:38:48.965Z,3.07
2018-07-05T12:41:36.270Z,3.47
2018-07-05T12:44:24.686Z,3.00
2018-07-05T12:47:12.066Z,2.90
2018-07-05T12:50:01.385Z,2.40
2018-07-05T12:52:48.901Z,3.77
2018-07-05T12:55:36.535Z,2.33
2018-07-05T12:58:23.682Z,2.47
2018-07-05T13:01:11.665Z,2.70
2018-07-05T13:03:59.647Z,4.40
2018-07-05T13:06:47.308Z,2.60
2018-07-05T13:09:34.399Z,6.43
2018-07-05T13:12:21.972Z,2.03
2018-07-05T13:15:09.780Z,2.63
2018-07-05T13:17:57.520Z,2.93
2018-07-05T13:20:45.606Z,2.13
2018-07-05T13:23:33.333Z,2.40
2018-07-05T13:26:20.579Z,2.10
2018-07-05T13:29:08.201Z,2.60
2018-07-05T13:31:54.946Z,2.63
2018-07-05T13:34:42.541Z,2.60
2018-07-05T13:37:29.878Z,2.33
2018-07-05T13:40:17.070Z,2.13
2018-07-05T13:43:04.670Z,3.17
2018-07-05T13:45:52.610Z,8.63
2018-07-05T13:48:34.123Z,2.10
2018-07-05T13:51:22.509Z,2.10
2018-07-05T13:54:10.515Z,2.20
2018-07-05T13:56:59.741Z,2.10
2018-07-05T13:59:47.154Z,10.43
2018-07-05T14:02:28.551Z,3.10
2018-07-05T14:05:15.920Z,2.90
2018-07-05T14:08:04.318Z,2.90
2018-07-05T14:10:52.467Z,2.17
2018-07-05T14:13:41.262Z,2.27
2018-07-05T14:16:29.658Z,1.83
2018-07-05T14:19:18.082Z,3.30
2018-07-05T14:22:06.915Z,2.37
2018-07-05T14:24:54.488Z,3.87
2018-07-05T14:27:41.974Z,2.83
2018-07-05T14:30:30.971Z,2.27
2018-07-05T14:33:13.097Z,2.17
2018-07-05T14:36:00.799Z,2.37
2018-07-05T14:38:49.476Z,2.13
2018-07-05T14:41:39.271Z,1.83
2018-07-05T14:44:26.886Z,2.10
2018-07-05T14:47:14.658Z,2.17
2018-07-05T14:50:03.719Z,2.80
2018-07-05T14:52:51.038Z,1.77
2018-07-05T14:55:39.886Z,3.20
2018-07-05T14:58:28.253Z,4.33
2018-07-05T15:01:15.612Z,1.80
2018-07-05T15:04:04.134Z,2.30
2018-07-05T15:06:52.227Z,2.83
2018-07-05T15:09:40.869Z,2.50
2018-07-05T15:12:22.229Z,2.00
2018-07-05T15:15:09.682Z,2.13
2018-07-05T15:17:56.903Z,2.70
2018-07-05T15:20:44.022Z,3.60
2018-07-05T15:23:31.462Z,1.87
2018-07-05T15:26:19.102Z,2.00
2018-07-05T15:29:06.394Z,2.20
2018-07-05T15:31:49.564Z,2.30
2018-07-05T15:34:37.185Z,1.97
2018-07-05T15:37:25.726Z,3.80
2018-07-05T15:40:13.719Z,1.70
2018-07-05T15:43:01.278Z,1.87
2018-07-05T15:45:48.900Z,1.93
2018-07-05T15:48:37.515Z,1.70
2018-07-05T15:51:24.872Z,1.87
2018-07-05T15:54:12.474Z,3.60
2018-07-05T15:56:59.717Z,2.13
2018-07-05T15:59:49.103Z,2.67
2018-07-05T16:02:36.210Z,1.80
2018-07-05T16:05:25.622Z,7.37
2018-07-05T16:08:13.647Z,3.83
2018-07-05T16:11:04.188Z,1.83
2018-07-05T16:13:51.414Z,2.37
2018-07-05T16:16:38.957Z,1.90
2018-07-05T16:19:26.447Z,5.47
2018-07-05T16:22:14.184Z,1.80
2018-07-05T16:25:01.606Z,1.90
2018-07-05T16:27:50.303Z,2.33
2018-07-05T16:30:37.726Z,8.30
2018-07-05T16:33:24.891Z,1.80
2018-07-05T16:36:12.353Z,2.20
2018-07-05T16:38:54.521Z,2.33
2018-07-05T16:41:41.715Z,1.70
2018-07-05T16:44:29.665Z,1.73
2018-07-05T16:47:17.394Z,1.63
2018-07-05T16:50:05.022Z,1.70
2018-07-05T16:52:52.479Z,2.50
2018-07-05T16:55:40.904Z,3.37
2018-07-05T16:58:28.567Z,1.60
2018-07-05T17:01:11.412Z,1.80
2018-07-05T17:03:58.846Z,2.40
2018-07-05T17:06:47.540Z,1.57
2018-07-05T17:09:36.394Z,1.83
2018-07-05T17:12:24.223Z,1.73
2018-07-05T17:15:11.869Z,1.83
2018-07-05T17:18:00.808Z,3.17
2018-07-05T17:20:48.031Z,2.10
2018-07-05T17:23:35.703Z,1.60
2018-07-05T17:26:23.895Z,1.40
2018-07-05T17:29:12.507Z,1.67
2018-07-05T17:32:00.627Z,1.50
2018-07-05T17:34:51.142Z,1.70
2018-07-05T17:37:39.927Z,1.63
2018-07-05T17:40:23.499Z,3.77
2018-07-05T17:43:11.020Z,1.57
2018-07-05T17:46:00.179Z,3.47
2018-07-05T17:48:50.357Z,2.13
2018-07-05T17:51:40.179Z,1.70
2018-07-05T17:54:27.394Z,1.70
2018-07-05T17:57:16.254Z,3.47
2018-07-05T18:00:03.370Z,1.80
2018-07-05T18:02:51.308Z,4.10
2018-07-05T18:05:38.734Z,2.20
2018-07-05T18:08:30.344Z,5.40
2018-07-05T18:11:18.074Z,3.20
2018-07-05T18:14:06.977Z,2.07
2018-07-05T18:16:54.466Z,2.10
2018-07-05T18:19:43.270Z,2.10
2018-07-05T18:22:31.833Z,2.40
2018-07-05T18:25:22.575Z,1.93
2018-07-05T18:28:10.829Z,9.37
2018-07-05T18:31:02.261Z,2.63
2018-07-05T18:33:49.710Z,2.47
2018-07-05T18:36:37.309Z,2.13
2018-07-05T18:39:24.865Z,2.83
2018-07-05T18:42:14.131Z,2.90
2018-07-05T18:45:03.059Z,2.70
2018-07-05T18:47:51.267Z,2.10
2018-07-05T18:50:38.941Z,2.80
2018-07-05T18:53:28.204Z,1.93
2018-07-05T18:56:15.985Z,2.40
2018-07-05T18:59:06.041Z,2.33
2018-07-05T19:01:54.499Z,2.70
2018-07-05T19:04:48.982Z,5.60
2018-07-05T19:07:53.825Z,2.10
2018-07-05T19:10:42.465Z,6.37
2018-07-05T19:13:30.859Z,1.80
2018-07-05T19:16:19.572Z,2.20
2018-07-05T19:19:02.764Z,1.97
2018-07-05T19:21:51.776Z,6.63
2018-07-05T19:24:39.127Z,1.90
2018-07-05T19:27:27.222Z,2.00
2018-07-05T19:30:15.005Z,3.07
2018-07-05T19:33:03.357Z,1.70
2018-07-05T19:35:51.782Z,2.10
2018-07-05T19:38:39.213Z,1.80
2018-07-05T19:41:26.874Z,1.80
2018-07-05T19:44:14.809Z,2.10
2018-07-05T19:47:03.860Z,2.60
2018-07-05T19:50:02.134Z,1.83
2018-07-05T19:52:50.837Z,2.70
2018-07-05T19:55:40.505Z,2.10
